Time;durP1;ratioP1;P1;durP2;ratioP2;P2;SDS_P1;SDS_P2;PMS_P1;PMS_P2;Temp;Humidity;BMP_temperature;BMP_pressure;BME280_temperature;BME280_humidity;BME280_pressure;Samples;Min_cycle;Max_cycle;Signal;HPM_P1;HPM_P2
2022/10/24 00:01:41;;;;;;;1.67;1.57;;;15.50;94.40;;;;;;5024043;28;20551;-68
2022/10/24 00:04:09;;;;;;;1.80;1.30;;;15.40;94.40;;;;;;5027298;28;20432;-66
2022/10/24 00:06:40;;;;;;;1.80;1.40;;;15.40;94.50;;;;;;5025538;28;20456;-68
2022/10/24 00:09:09;;;;;;;3.10;1.70;;;15.50;95.00;;;;;;5021734;28;20554;-67
2022/10/24 00:11:38;;;;;;;2.17;1.30;;;15.50;94.50;;;;;;5020742;28;20570;-68
2022/10/24 00:14:06;;;;;;;7.17;2.60;;;15.50;94.50;;;;;;5026302;28;20977;-67
2022/10/24 00:16:35;;;;;;;2.93;2.10;;;15.40;94.50;;;;;;5022295;28;20559;-68
2022/10/24 00:19:04;;;;;;;1.87;1.30;;;15.50;94.60;;;;;;5026511;28;20827;-68
2022/10/24 00:21:32;;;;;;;1.50;1.40;;;15.50;94.50;;;;;;5025008;28;20979;-68
2022/10/24 00:24:02;;;;;;;2.03;1.33;;;15.40;94.50;;;;;;5028103;28;20430;-69
2022/10/24 00:26:30;;;;;;;2.83;2.07;;;15.40;94.50;;;;;;5018693;28;20476;-68
2022/10/24 00:28:59;;;;;;;1.90;1.33;;;15.50;94.60;;;;;;5026925;28;21034;-68
2022/10/24 00:31:28;;;;;;;1.67;1.00;;;15.50;94.60;;;;;;5024644;28;20835;-68
2022/10/24 00:33:58;;;;;;;2.50;1.70;;;15.40;94.40;;;;;;5024241;28;20450;-68
2022/10/24 00:36:27;;;;;;;3.40;1.90;;;15.50;94.50;;;;;;5025309;28;20521;-68
2022/10/24 00:38:56;;;;;;;2.70;1.67;;;15.50;94.50;;;;;;5017903;28;20472;-68
2022/10/24 00:41:28;;;;;;;1.70;1.60;;;15.50;94.60;;;;;;5038041;28;20523;-68
2022/10/24 00:44:16;;;;;;;1.70;1.57;;;15.50;94.60;;;;;;5021313;28;20462;-68
2022/10/24 00:46:48;;;;;;;2.10;1.20;;;15.50;94.50;;;;;;5015895;28;20852;-68
2022/10/24 00:49:19;;;;;;;3.20;1.97;;;15.40;94.50;;;;;;5021406;28;20471;-68
2022/10/24 00:51:50;;;;;;;1.77;1.10;;;15.50;94.50;;;;;;5024887;28;20539;-68
2022/10/24 00:54:19;;;;;;;2.80;1.17;;;15.40;94.40;;;;;;5023416;28;20444;-69
2022/10/24 00:56:55;;;;;;;2.27;1.93;;;15.40;94.40;;;;;;5020248;28;20484;-68
2022/10/24 00:59:24;;;;;;;3.03;2.17;;;15.50;94.40;;;;;;5023482;28;20448;-67
2022/10/24 01:01:52;;;;;;;4.60;1.73;;;15.40;94.30;;;;;;5024087;28;20756;-68
2022/10/24 01:04:21;;;;;;;2.10;1.40;;;15.50;94.40;;;;;;5023268;28;20462;-68
2022/10/24 01:06:59;;;;;;;1.63;1.53;;;15.50;94.40;;;;;;5021227;28;20472;-69
2022/10/24 01:09:40;;;;;;;1.40;1.20;;;15.40;94.30;;;;;;5025780;28;20861;-69
2022/10/24 01:12:23;;;;;;;1.87;1.67;;;15.50;94.30;;;;;;5023074;28;20551;-68
2022/10/24 01:15:03;;;;;;;2.57;1.57;;;15.40;94.30;;;;;;5025497;28;20436;-68
2022/10/24 01:17:41;;;;;;;2.20;1.60;;;15.40;94.20;;;;;;5026393;28;20458;-68
2022/10/24 01:20:47;;;;;;;2.47;1.97;;;15.50;94.20;;;;;;5020318;28;20479;-67
2022/10/24 01:23:54;;;;;;;1.70;1.60;;;15.50;94.20;;;;;;5026094;28;20866;-68
2022/10/24 01:26:42;;;;;;;1.70;1.20;;;15.50;94.30;;;;;;5027033;28;20499;-68
2022/10/24 01:29:19;;;;;;;1.70;1.40;;;15.40;94.20;;;;;;5029344;28;20895;-68
2022/10/24 01:31:55;;;;;;;2.10;1.50;;;15.50;94.20;;;;;;5023556;28;20471;-68
2022/10/24 01:34:28;;;;;;;2.60;1.37;;;15.40;94.10;;;;;;5029449;28;20424;-68
2022/10/24 01:37:01;;;;;;;1.80;1.47;;;15.40;94.10;;;;;;5024073;28;20907;-68
2022/10/24 01:39:34;;;;;;;1.70;1.37;;;15.40;94.10;;;;;;5026289;28;20465;-69
2022/10/24 01:42:04;;;;;;;1.47;1.30;;;15.50;94.10;;;;;;5026204;28;20467;-69
2022/10/24 01:44:37;;;;;;;2.00;1.57;;;15.50;94.10;;;;;;5027975;28;20496;-68
2022/10/24 01:47:13;;;;;;;4.33;2.10;;;15.50;94.00;;;;;;5032701;28;20814;-68
2022/10/24 01:49:46;;;;;;;3.70;1.60;;;15.50;94.00;;;;;;5023790;28;20470;-68
2022/10/24 01:52:17;;;;;;;2.17;1.90;;;15.40;94.00;;;;;;5028430;28;20986;-69
2022/10/24 01:54:47;;;;;;;2.93;1.40;;;15.50;93.90;;;;;;5017706;28;20443;-68
2022/10/24 01:57:16;;;;;;;1.07;0.97;;;15.40;93.90;;;;;;5028279;28;20951;-69
2022/10/24 01:59:46;;;;;;;2.30;1.20;;;15.50;93.90;;;;;;5027844;28;20437;-69
2022/10/24 02:02:21;;;;;;;1.87;1.60;;;15.40;93.80;;;;;;5025119;28;20804;-68
2022/10/24 02:04:54;;;;;;;2.00;1.60;;;15.40;93.80;;;;;;5036121;28;20472;-68
2022/10/24 02:07:24;;;;;;;3.47;1.77;;;15.50;93.80;;;;;;5023895;28;20424;-68
2022/10/24 02:09:57;;;;;;;2.33;1.53;;;15.50;93.80;;;;;;5027015;28;20457;-68
2022/10/24 02:12:27;;;;;;;1.80;1.30;;;15.50;93.80;;;;;;5025167;28;20450;-68
2022/10/24 02:15:01;;;;;;;3.00;1.30;;;15.40;93.80;;;;;;5028422;28;20564;-68
2022/10/24 02:17:31;;;;;;;1.77;1.67;;;15.50;93.80;;;;;;5027343;28;21046;-67
2022/10/24 02:20:01;;;;;;;2.97;1.60;;;15.50;93.80;;;;;;5031003;28;20439;-68
2022/10/24 02:22:33;;;;;;;2.60;1.47;;;15.50;94.30;;;;;;5029861;28;20448;-68
2022/10/24 02:25:07;;;;;;;4.63;1.40;;;15.40;93.80;;;;;;5030396;28;20444;-68
2022/10/24 02:27:39;;;;;;;1.90;1.43;;;15.40;93.70;;;;;;5025514;28;20858;-68
2022/10/24 02:32:56;;;;;;;2.20;1.37;;;15.50;93.70;;;;;;5040333;28;20467;-73
2022/10/24 02:35:28;;;;;;;5.90;1.90;;;15.40;93.70;;;;;;5032039;28;20439;-72
2022/10/24 02:38:02;;;;;;;1.70;1.60;;;15.50;93.80;;;;;;5024345;28;20543;-72
2022/10/24 02:40:32;;;;;;;2.03;1.30;;;15.50;93.70;;;;;;5012227;28;20491;-73
2022/10/24 02:43:02;;;;;;;3.67;1.73;;;15.50;93.70;;;;;;5008580;28;20419;-72
2022/10/24 02:45:31;;;;;;;6.40;3.00;;;15.50;93.80;;;;;;5012899;28;20475;-72
2022/10/24 02:48:05;;;;;;;1.80;1.70;;;15.50;93.70;;;;;;5007772;28;20994;-72
2022/10/24 02:50:33;;;;;;;3.97;1.50;;;15.50;93.70;;;;;;5010204;28;20492;-72
2022/10/24 02:53:02;;;;;;;1.57;1.47;;;15.50;93.70;;;;;;5013747;28;20767;-72
2022/10/24 02:55:30;;;;;;;2.00;1.13;;;15.40;93.70;;;;;;5008664;28;20448;-72
2022/10/24 02:57:59;;;;;;;1.73;1.40;;;15.40;93.60;;;;;;5011938;28;20471;-72
2022/10/24 03:00:27;;;;;;;1.93;1.40;;;15.50;93.70;;;;;;5018833;28;20490;-72
2022/10/24 03:02:55;;;;;;;2.10;1.67;;;15.50;93.70;;;;;;5007894;28;20452;-72
2022/10/24 03:05:25;;;;;;;1.63;1.40;;;15.50;93.70;;;;;;5009082;28;20506;-72
2022/10/24 03:07:53;;;;;;;2.30;1.10;;;15.50;93.70;;;;;;5000599;28;20989;-72
2022/10/24 03:10:22;;;;;;;1.83;1.60;;;15.50;93.60;;;;;;5000476;28;20476;-72
2022/10/24 03:12:50;;;;;;;1.33;0.80;;;15.40;93.60;;;;;;5011373;28;20939;-72
2022/10/24 03:15:19;;;;;;;1.97;1.20;;;15.50;93.60;;;;;;5009106;28;20436;-72
2022/10/24 03:17:48;;;;;;;3.03;1.53;;;15.50;93.60;;;;;;5007802;28;20468;-72
2022/10/24 03:20:17;;;;;;;4.63;1.73;;;15.50;93.60;;;;;;5026177;28;20454;-72
2022/10/24 03:22:46;;;;;;;2.77;1.20;;;15.40;93.50;;;;;;5008542;28;20526;-73
2022/10/24 03:25:15;;;;;;;1.90;1.23;;;15.40;93.50;;;;;;5004745;28;21002;-72
2022/10/24 03:27:43;;;;;;;2.30;1.43;;;15.40;93.50;;;;;;5010604;28;20990;-70
2022/10/24 03:30:13;;;;;;;2.03;1.20;;;15.50;93.50;;;;;;5012639;28;20460;-72
2022/10/24 03:32:41;;;;;;;1.77;1.33;;;15.40;93.50;;;;;;5013406;28;20490;-72
2022/10/24 03:35:10;;;;;;;2.10;1.30;;;15.40;93.50;;;;;;5011014;28;20454;-73
2022/10/24 03:37:41;;;;;;;3.20;1.60;;;15.40;93.40;;;;;;5009863;28;21130;-72
2022/10/24 03:40:12;;;;;;;2.17;1.10;;;15.40;93.50;;;;;;5010043;28;20463;-72
2022/10/24 03:42:40;;;;;;;1.97;1.20;;;15.40;93.40;;;;;;5002829;28;20969;-72
2022/10/24 03:45:10;;;;;;;2.70;1.27;;;15.40;93.40;;;;;;5010429;28;20973;-72
2022/10/24 03:47:38;;;;;;;1.47;1.20;;;15.50;93.30;;;;;;5008760;28;20471;-72
2022/10/24 03:50:08;;;;;;;3.80;1.20;;;15.40;93.30;;;;;;5009911;28;20553;-72
2022/10/24 03:52:36;;;;;;;2.47;1.03;;;15.40;93.20;;;;;;5009976;28;20535;-72
2022/10/24 03:55:05;;;;;;;1.47;1.13;;;15.40;93.20;;;;;;5008275;28;20467;-72
2022/10/24 03:57:35;;;;;;;4.50;1.50;;;15.40;93.20;;;;;;5031653;28;20852;-72
2022/10/24 04:00:05;;;;;;;1.37;0.97;;;15.40;93.30;;;;;;5010885;28;20559;-72
2022/10/24 04:02:33;;;;;;;3.60;1.30;;;15.40;93.20;;;;;;5025692;28;20444;-72
2022/10/24 04:05:05;;;;;;;2.07;1.60;;;15.40;93.10;;;;;;5009879;28;20494;-72
2022/10/24 04:07:33;;;;;;;1.80;1.70;;;15.40;93.20;;;;;;5007336;28;20925;-72
2022/10/24 04:10:02;;;;;;;3.53;1.00;;;15.40;93.20;;;;;;4993316;28;20467;-72
2022/10/24 04:12:31;;;;;;;1.60;1.20;;;15.40;93.20;;;;;;5009932;28;20444;-72
2022/10/24 04:15:00;;;;;;;1.70;1.40;;;15.40;93.20;;;;;;5009911;28;20565;-72
2022/10/24 04:17:32;;;;;;;1.87;0.93;;;15.40;93.10;;;;;;5000521;28;20451;-72
2022/10/24 04:20:00;;;;;;;1.17;0.90;;;15.40;93.10;;;;;;5010719;28;20527;-72
2022/10/24 04:22:29;;;;;;;2.20;1.10;;;15.40;93.60;;;;;;5003744;28;20535;-72
2022/10/24 04:24:57;;;;;;;2.47;1.27;;;15.40;93.10;;;;;;5007192;28;21417;-71
2022/10/24 04:27:25;;;;;;;1.37;1.27;;;15.40;93.10;;;;;;5006734;28;20634;-72
2022/10/24 04:29:54;;;;;;;2.30;1.20;;;15.40;93.10;;;;;;5010323;28;20471;-72
2022/10/24 04:32:23;;;;;;;1.97;1.20;;;15.40;93.10;;;;;;5009173;28;20452;-72
2022/10/24 04:34:52;;;;;;;2.10;1.20;;;15.40;93.10;;;;;;5009988;28;20435;-72
2022/10/24 04:37:20;;;;;;;2.57;1.43;;;15.40;93.00;;;;;;5005307;28;20442;-72
2022/10/24 04:39:49;;;;;;;4.30;1.27;;;15.40;93.10;;;;;;5020215;28;20467;-72
2022/10/24 04:42:17;;;;;;;2.50;1.00;;;15.40;93.00;;;;;;5007681;28;20495;-72
2022/10/24 04:44:45;;;;;;;1.60;1.20;;;15.40;93.00;;;;;;4990150;28;20443;-72
2022/10/24 04:47:14;;;;;;;4.50;1.63;;;15.40;93.00;;;;;;5006241;28;20437;-72
2022/10/24 04:49:44;;;;;;;1.40;0.93;;;15.40;93.00;;;;;;4982412;28;20936;-72
2022/10/24 04:52:12;;;;;;;1.57;1.00;;;15.40;93.00;;;;;;4986734;28;20539;-72
2022/10/24 04:54:40;;;;;;;1.80;1.10;;;15.40;93.00;;;;;;4985585;28;20544;-72
2022/10/24 04:57:09;;;;;;;2.20;1.30;;;15.40;93.00;;;;;;4994198;28;20832;-72
2022/10/24 04:59:37;;;;;;;1.60;1.17;;;15.40;93.00;;;;;;5010119;28;20452;-72
2022/10/24 05:02:05;;;;;;;1.53;1.10;;;15.40;93.00;;;;;;4985342;28;20444;-72
2022/10/24 05:04:34;;;;;;;1.67;1.10;;;15.40;93.00;;;;;;4991096;28;20433;-72
2022/10/24 05:07:04;;;;;;;3.40;1.10;;;15.40;93.00;;;;;;4993106;28;20452;-72
2022/10/24 05:09:32;;;;;;;1.20;1.10;;;15.40;92.90;;;;;;5006317;28;20452;-72
2022/10/24 05:12:01;;;;;;;1.20;1.00;;;15.40;92.90;;;;;;4992729;28;20751;-72
2022/10/24 05:14:29;;;;;;;1.27;1.10;;;15.40;92.90;;;;;;4994029;28;20447;-72
2022/10/24 05:16:57;;;;;;;2.50;1.00;;;15.40;92.90;;;;;;4981889;28;20556;-72
2022/10/24 05:19:26;;;;;;;3.03;1.10;;;15.40;92.90;;;;;;4991844;28;20457;-72
2022/10/24 05:21:54;;;;;;;1.53;1.13;;;15.40;92.90;;;;;;4994855;28;20464;-72
2022/10/24 05:24:25;;;;;;;1.83;1.63;;;15.40;92.90;;;;;;4986407;28;20487;-72
2022/10/24 05:26:53;;;;;;;1.50;1.00;;;15.40;92.90;;;;;;4986615;28;20527;-72
2022/10/24 05:29:22;;;;;;;1.20;1.00;;;15.40;92.90;;;;;;4997304;28;20455;-72
2022/10/24 05:31:50;;;;;;;0.97;0.93;;;15.40;92.90;;;;;;5000684;28;20886;-73
2022/10/24 05:34:18;;;;;;;1.50;1.10;;;15.40;92.90;;;;;;5001256;28;20441;-72
2022/10/24 05:36:47;;;;;;;1.80;0.93;;;15.40;92.80;;;;;;5008592;28;20491;-72
2022/10/24 05:39:15;;;;;;;1.27;1.17;;;15.40;92.80;;;;;;5005141;28;20469;-73
2022/10/24 05:41:45;;;;;;;1.87;1.13;;;15.40;92.80;;;;;;5020591;28;20556;-72
2022/10/24 05:44:15;;;;;;;0.93;0.73;;;15.40;92.80;;;;;;5005948;28;20424;-70
2022/10/24 05:46:44;;;;;;;1.53;1.30;;;15.40;92.80;;;;;;5001954;28;20576;-72
2022/10/24 05:49:14;;;;;;;1.70;1.60;;;15.40;92.80;;;;;;4997724;28;20912;-72
2022/10/24 05:51:42;;;;;;;2.10;1.20;;;15.40;92.80;;;;;;5006876;28;20547;-72
2022/10/24 05:54:10;;;;;;;1.00;0.90;;;15.40;92.80;;;;;;5011272;28;20480;-72
2022/10/24 05:56:40;;;;;;;1.50;1.20;;;15.40;92.80;;;;;;5008441;28;20463;-72
2022/10/24 05:59:10;;;;;;;2.10;1.17;;;15.40;92.80;;;;;;5010021;28;20511;-72
2022/10/24 06:01:38;;;;;;;1.77;1.20;;;15.40;92.80;;;;;;5006040;28;20477;-72
2022/10/24 06:04:06;;;;;;;1.63;1.00;;;15.40;92.80;;;;;;5000543;28;20452;-72
2022/10/24 06:06:41;;;;;;;2.43;1.50;;;15.40;92.80;;;;;;5007808;28;20465;-72
2022/10/24 06:09:10;;;;;;;1.17;1.07;;;15.40;92.70;;;;;;5003877;28;20463;-72
2022/10/24 06:11:39;;;;;;;3.00;1.50;;;15.40;92.70;;;;;;5011124;28;20476;-72
2022/10/24 06:14:09;;;;;;;1.60;0.93;;;15.40;92.70;;;;;;5008828;28;20860;-72
2022/10/24 06:16:38;;;;;;;1.63;0.90;;;15.30;92.70;;;;;;4997418;28;20476;-72
2022/10/24 06:19:07;;;;;;;2.20;0.70;;;15.40;92.70;;;;;;5013618;28;20480;-72
2022/10/24 06:21:36;;;;;;;2.97;1.27;;;15.30;92.70;;;;;;4986914;28;21019;-72
2022/10/24 06:24:05;;;;;;;1.93;1.07;;;15.30;92.70;;;;;;4991432;28;20433;-73
2022/10/24 06:26:33;;;;;;;1.27;1.10;;;15.40;92.70;;;;;;5005367;28;20481;-70
2022/10/24 06:29:02;;;;;;;1.40;1.20;;;15.40;92.70;;;;;;4994095;28;20456;-72
2022/10/24 06:31:34;;;;;;;2.90;1.20;;;15.40;92.70;;;;;;4991072;28;20466;-72
2022/10/24 06:34:02;;;;;;;1.27;0.90;;;15.40;92.70;;;;;;5026636;28;20722;-71
2022/10/24 06:36:31;;;;;;;0.93;0.90;;;15.40;92.70;;;;;;4991652;28;20516;-72
2022/10/24 06:38:59;;;;;;;3.77;1.10;;;15.30;92.60;;;;;;4992008;28;20464;-72
2022/10/24 06:41:28;;;;;;;1.87;1.10;;;15.40;92.70;;;;;;4992354;28;20476;-73
2022/10/24 06:43:57;;;;;;;2.40;0.70;;;15.40;92.70;;;;;;4989553;28;20503;-72
2022/10/24 06:46:25;;;;;;;2.33;1.20;;;15.40;92.70;;;;;;4994640;28;20485;-72
2022/10/24 06:48:56;;;;;;;1.80;1.07;;;15.40;92.60;;;;;;5006411;28;20456;-72
2022/10/24 06:51:25;;;;;;;1.73;0.80;;;15.40;92.70;;;;;;5000653;28;20550;-72
2022/10/24 06:53:54;;;;;;;1.43;0.80;;;15.40;92.60;;;;;;4992423;28;20819;-72
2022/10/24 06:56:22;;;;;;;1.47;1.10;;;15.30;92.60;;;;;;4998841;28;20487;-72
2022/10/24 06:58:51;;;;;;;2.30;1.10;;;15.30;92.60;;;;;;4992151;28;20445;-72
2022/10/24 07:01:23;;;;;;;1.90;1.23;;;15.30;92.60;;;;;;5005361;28;20468;-71
2022/10/24 07:03:53;;;;;;;1.27;1.00;;;15.40;92.60;;;;;;4997967;28;20948;-72
2022/10/24 07:06:24;;;;;;;2.60;1.03;;;15.40;92.60;;;;;;4990386;28;20515;-69
2022/10/24 07:08:54;;;;;;;1.37;1.07;;;15.30;92.60;;;;;;4997892;28;20515;-69
2022/10/24 07:11:22;;;;;;;1.37;0.80;;;15.30;92.60;;;;;;5007289;28;20453;-69
2022/10/24 07:13:51;;;;;;;1.17;0.90;;;15.30;92.50;;;;;;4996168;28;20924;-69
2022/10/24 07:16:26;;;;;;;2.23;1.07;;;15.30;92.50;;;;;;4999053;28;20697;-69
2022/10/24 07:18:54;;;;;;;3.20;1.00;;;15.30;92.50;;;;;;4996287;28;20543;-69
2022/10/24 07:21:27;;;;;;;1.27;1.17;;;15.40;92.50;;;;;;4997522;28;20463;-72
2022/10/24 07:23:56;;;;;;;1.23;1.00;;;15.30;92.50;;;;;;5003549;28;20487;-71
2022/10/24 07:26:28;;;;;;;2.10;0.93;;;15.30;92.50;;;;;;5003687;28;20566;-71
2022/10/24 07:28:59;;;;;;;1.50;0.97;;;15.40;92.50;;;;;;5027488;28;20462;-72
2022/10/24 07:31:34;;;;;;;2.63;1.20;;;15.40;92.50;;;;;;5008123;28;20546;-71
2022/10/24 07:34:04;;;;;;;1.10;0.70;;;15.30;92.50;;;;;;5028522;28;20435;-71
2022/10/24 07:36:35;;;;;;;1.27;1.00;;;15.30;92.40;;;;;;5016640;28;20472;-71
2022/10/24 07:39:12;;;;;;;1.53;1.10;;;15.30;92.50;;;;;;5005396;28;20472;-71
2022/10/24 07:41:42;;;;;;;0.90;0.80;;;15.30;92.40;;;;;;4992480;28;20460;-72
2022/10/24 07:44:11;;;;;;;1.50;0.73;;;15.30;92.40;;;;;;4991274;28;20436;-71
2022/10/24 07:46:42;;;;;;;1.80;1.10;;;15.30;92.40;;;;;;4972268;28;20852;-71
2022/10/24 07:49:11;;;;;;;2.23;1.00;;;15.30;92.50;;;;;;5008230;28;21007;-72
2022/10/24 07:51:42;;;;;;;2.37;1.07;;;15.30;92.30;;;;;;5002461;28;20479;-71
2022/10/24 07:54:11;;;;;;;1.63;1.00;;;15.30;92.20;;;;;;5013925;28;20491;-72
2022/10/24 07:56:39;;;;;;;1.87;1.30;;;15.30;92.30;;;;;;5009088;28;20886;-72
2022/10/24 07:59:08;;;;;;;3.60;1.10;;;15.40;92.30;;;;;;5012511;28;20452;-71
2022/10/24 08:01:56;;;;;;;1.93;0.90;;;15.40;92.30;;;;;;5004888;28;20472;-71
2022/10/24 08:04:25;;;;;;;1.93;1.10;;;15.40;92.30;;;;;;4991198;28;20888;-69
2022/10/24 08:06:55;;;;;;;1.43;1.10;;;15.30;92.30;;;;;;4994840;28;20502;-69
2022/10/24 08:09:25;;;;;;;3.43;1.10;;;15.40;92.30;;;;;;4995512;28;20461;-69
2022/10/24 08:11:54;;;;;;;1.20;0.60;;;15.40;92.30;;;;;;4989203;28;20472;-69
2022/10/24 08:14:23;;;;;;;3.90;1.30;;;15.40;92.30;;;;;;5006031;28;20444;-69
2022/10/24 08:16:52;;;;;;;1.00;0.70;;;15.40;92.80;;;;;;4988448;28;20488;-69
2022/10/24 08:19:21;;;;;;;1.20;0.70;;;15.40;92.10;;;;;;4995179;28;20460;-71
2022/10/24 08:21:51;;;;;;;1.50;1.00;;;15.40;91.80;;;;;;4998638;28;20468;-72
2022/10/24 08:24:22;;;;;;;1.73;0.97;;;15.40;91.80;;;;;;5016649;28;20466;-72
2022/10/24 08:26:51;;;;;;;2.13;1.03;;;15.40;91.90;;;;;;5023827;28;20892;-72
2022/10/24 08:29:21;;;;;;;4.00;1.17;;;15.50;91.90;;;;;;5014187;28;20643;-72
2022/10/24 08:31:50;;;;;;;2.20;1.07;;;15.50;91.90;;;;;;5084726;22;20482;-67
2022/10/24 08:34:19;;;;;;;2.17;1.03;;;15.50;91.90;;;;;;5071058;28;20434;-69
2022/10/24 08:36:49;;;;;;;1.70;0.87;;;15.40;91.90;;;;;;5032320;28;20911;-67
2022/10/24 08:39:18;;;;;;;1.20;0.87;;;15.40;91.80;;;;;;5029694;28;21050;-68
2022/10/24 08:41:51;;;;;;;1.87;0.80;;;15.50;91.90;;;;;;5073114;28;20466;-68
2022/10/24 08:44:28;;;;;;;4.53;1.30;;;15.40;91.70;;;;;;5070000;28;20438;-68
2022/10/24 08:47:02;;;;;;;1.27;1.00;;;15.50;91.80;;;;;;5065638;28;20991;-67
2022/10/24 08:49:37;;;;;;;1.40;0.80;;;15.50;91.70;;;;;;5065327;28;20450;-68
2022/10/24 08:52:16;;;;;;;2.03;1.40;;;15.50;91.80;;;;;;5064807;28;20457;-65
2022/10/24 08:54:46;;;;;;;7.10;1.70;;;15.50;91.80;;;;;;5067246;28;20444;-66
2022/10/24 08:57:21;;;;;;;1.20;0.83;;;15.60;91.90;;;;;;5067755;28;20964;-68
2022/10/24 08:59:50;;;;;;;1.70;0.73;;;15.70;91.10;;;;;;5085729;28;20992;-68
2022/10/24 09:02:22;;;;;;;4.37;1.07;;;15.70;90.90;;;;;;5066855;28;20514;-68
2022/10/24 09:04:56;;;;;;;1.37;0.93;;;15.70;90.90;;;;;;5067822;28;20973;-67
2022/10/24 09:07:25;;;;;;;2.60;1.10;;;15.70;91.00;;;;;;5082797;28;20445;-66
2022/10/24 09:10:02;;;;;;;3.03;1.30;;;15.60;91.00;;;;;;5060609;28;20487;-67
2022/10/24 09:12:35;;;;;;;1.97;0.80;;;15.60;91.10;;;;;;5088370;28;20456;-68
2022/10/24 09:15:13;;;;;;;3.10;0.97;;;15.60;91.10;;;;;;5050057;28;20985;-68
2022/10/24 09:17:42;;;;;;;2.10;1.03;;;15.60;91.20;;;;;;5062860;28;20457;-68
2022/10/24 09:20:23;;;;;;;2.70;0.93;;;15.60;91.20;;;;;;5076954;28;20469;-68
2022/10/24 09:22:52;;;;;;;2.70;1.40;;;15.60;91.20;;;;;;5085750;28;20464;-66
2022/10/24 09:25:23;;;;;;;2.57;0.93;;;15.60;91.30;;;;;;5078028;28;20979;-67
2022/10/24 09:27:52;;;;;;;2.40;1.00;;;15.50;91.20;;;;;;5083971;28;20453;-68
2022/10/24 09:30:24;;;;;;;2.50;0.90;;;15.50;91.20;;;;;;5059381;28;20814;-68
2022/10/24 09:33:02;;;;;;;1.83;1.13;;;15.50;91.10;;;;;;5066209;28;20470;-67
2022/10/24 09:35:34;;;;;;;4.60;1.00;;;15.60;91.20;;;;;;5066840;28;20435;-66
2022/10/24 09:38:32;;;;;;;1.33;0.77;;;15.50;91.20;;;;;;5079507;28;20470;-67
2022/10/24 09:41:04;;;;;;;1.63;1.03;;;15.50;91.20;;;;;;5060590;28;20539;-67
2022/10/24 09:43:40;;;;;;;5.33;2.60;;;15.50;91.30;;;;;;5059230;28;20763;-68
2022/10/24 09:46:10;;;;;;;2.60;1.10;;;15.60;91.30;;;;;;5075184;28;20461;-68
2022/10/24 09:48:48;;;;;;;1.63;1.07;;;15.60;91.40;;;;;;5064179;28;20458;-66
2022/10/24 09:51:23;;;;;;;2.50;1.30;;;15.60;91.30;;;;;;5064206;28;20469;-67
2022/10/24 09:54:02;;;;;;;2.03;1.07;;;15.50;91.30;;;;;;5066933;28;20752;-67
2022/10/24 09:56:36;;;;;;;2.10;1.00;;;15.60;91.30;;;;;;5057924;28;20479;-67
2022/10/24 09:59:34;;;;;;;3.20;1.40;;;15.60;91.30;;;;;;5059552;28;20453;-68
2022/10/24 10:02:23;;;;;;;1.37;0.83;;;15.50;91.30;;;;;;5076559;28;21015;-68
2022/10/24 10:05:25;;;;;;;2.80;1.17;;;15.50;91.20;;;;;;5066443;28;20442;-67
2022/10/24 10:07:53;;;;;;;1.40;0.70;;;15.50;91.20;;;;;;5026332;28;20455;-68
2022/10/24 10:10:31;;;;;;;1.10;0.80;;;15.60;91.30;;;;;;5007394;28;21213;-67
2022/10/24 10:13:06;;;;;;;1.03;0.60;;;15.60;91.30;;;;;;5034578;28;20931;-67
2022/10/24 10:15:38;;;;;;;2.97;1.07;;;15.60;91.30;;;;;;5080397;28;20434;-66
2022/10/24 10:18:27;;;;;;;3.80;0.97;;;15.60;91.30;;;;;;5063872;28;20462;-65
2022/10/24 10:21:06;;;;;;;1.90;0.80;;;15.50;91.20;;;;;;5074620;28;20504;-66
2022/10/24 10:23:38;;;;;;;3.23;1.17;;;15.50;91.20;;;;;;5079597;28;20458;-67
2022/10/24 10:26:13;;;;;;;1.20;0.80;;;15.60;91.20;;;;;;5078255;28;20484;-66
2022/10/24 10:29:04;;;;;;;1.90;1.37;;;15.60;91.20;;;;;;5065326;28;21020;-67
2022/10/24 10:31:40;;;;;;;1.50;0.80;;;15.60;91.20;;;;;;5061049;28;20512;-68
2022/10/24 10:34:23;;;;;;;1.10;0.97;;;15.50;91.20;;;;;;5066441;28;21838;-72
2022/10/24 10:37:17;;;;;;;2.10;1.13;;;15.60;91.30;;;;;;5082916;28;20466;-73
2022/10/24 10:40:09;;;;;;;1.63;1.03;;;15.60;91.30;;;;;;5067367;28;20451;-71
2022/10/24 10:42:44;;;;;;;3.93;1.57;;;15.60;91.30;;;;;;5062905;28;20437;-74
2022/10/24 10:45:31;;;;;;;1.93;0.77;;;15.50;91.20;;;;;;5075175;28;20553;-71
2022/10/24 10:48:10;;;;;;;2.77;0.83;;;15.50;91.20;;;;;;5063359;28;21010;-72
2022/10/24 10:50:43;;;;;;;3.40;0.80;;;15.60;91.30;;;;;;5082190;28;20436;-73
2022/10/24 10:53:27;;;;;;;5.20;2.10;;;15.50;91.30;;;;;;5080886;28;20446;-71
2022/10/24 10:56:02;;;;;;;2.73;1.10;;;15.60;91.50;;;;;;5059510;28;20478;-66
2022/10/24 10:58:39;;;;;;;2.13;1.13;;;15.70;91.40;;;;;;5057665;28;20514;-66
2022/10/24 11:01:15;;;;;;;6.47;1.40;;;15.80;91.20;;;;;;5055581;28;20474;-68
2022/10/24 11:03:50;;;;;;;2.07;1.10;;;15.90;91.10;;;;;;5061995;28;20445;-67
2022/10/24 11:06:31;;;;;;;3.57;1.27;;;15.90;91.10;;;;;;5064524;28;20565;-66
2022/10/24 11:09:23;;;;;;;2.83;1.10;;;16.00;91.00;;;;;;5062790;28;20537;-67
2022/10/24 11:11:57;;;;;;;1.20;0.73;;;15.90;90.70;;;;;;5060403;28;21061;-67
2022/10/24 11:14:31;;;;;;;2.50;1.43;;;15.90;90.60;;;;;;5077794;28;20562;-68
2022/10/24 11:17:06;;;;;;;2.50;1.10;;;15.90;90.70;;;;;;5062118;28;20509;-67
2022/10/24 11:19:50;;;;;;;2.53;1.20;;;15.80;90.70;;;;;;5076490;28;20508;-66
2022/10/24 11:22:23;;;;;;;3.93;1.00;;;15.80;90.80;;;;;;5059186;28;20493;-66
2022/10/24 11:25:00;;;;;;;4.70;1.60;;;15.80;90.90;;;;;;5061170;28;20435;-72
2022/10/24 11:27:37;;;;;;;3.17;1.63;;;15.80;91.00;;;;;;5065925;28;20972;-69
2022/10/24 11:30:14;;;;;;;4.07;1.37;;;15.90;90.90;;;;;;5074520;28;20516;-72
2022/10/24 11:32:49;;;;;;;5.07;1.40;;;15.90;90.90;;;;;;5061902;28;20985;-73
2022/10/24 11:35:27;;;;;;;2.60;0.60;;;16.00;91.20;;;;;;5064184;28;20480;-72
2022/10/24 11:38:01;;;;;;;1.53;0.93;;;16.00;90.50;;;;;;5066100;28;20457;-71
2022/10/24 11:40:30;;;;;;;3.60;1.33;;;15.90;90.50;;;;;;5058535;28;20470;-72
2022/10/24 11:43:13;;;;;;;4.30;1.37;;;15.90;90.60;;;;;;5064115;28;20529;-72
2022/10/24 11:45:49;;;;;;;3.27;1.03;;;15.80;90.70;;;;;;5073193;28;20446;-71
2022/10/24 11:48:38;;;;;;;2.80;0.90;;;15.80;90.80;;;;;;5081911;28;20465;-72
2022/10/24 11:51:17;;;;;;;2.03;1.00;;;15.80;90.90;;;;;;5065290;28;20470;-67
2022/10/24 11:53:52;;;;;;;4.47;1.10;;;15.80;90.90;;;;;;5066505;28;20442;-66
2022/10/24 11:56:32;;;;;;;4.70;1.10;;;15.80;91.00;;;;;;5076182;28;20465;-67
2022/10/24 11:59:03;;;;;;;2.90;1.37;;;15.80;91.00;;;;;;5066557;28;20491;-66
2022/10/24 12:01:47;;;;;;;2.50;0.90;;;15.80;91.00;;;;;;5062644;28;20992;-67
2022/10/24 12:04:58;;;;;;;2.93;1.00;;;15.80;91.00;;;;;;5065680;28;20891;-67
2022/10/24 12:08:06;;;;;;;2.63;0.93;;;15.80;91.10;;;;;;5079712;28;20454;-67
2022/10/24 12:11:00;;;;;;;2.83;1.53;;;15.70;91.00;;;;;;5061928;28;20537;-67
2022/10/24 12:14:02;;;;;;;4.70;1.57;;;15.70;91.00;;;;;;5063214;28;20445;-66
2022/10/24 12:16:47;;;;;;;0.80;0.60;;;15.70;91.00;;;;;;5059830;28;20825;-67
2022/10/24 12:19:19;;;;;;;5.00;1.00;;;15.70;91.00;;;;;;5059752;28;20460;-66
2022/10/24 12:21:52;;;;;;;3.17;1.50;;;15.70;91.10;;;;;;5056824;28;20478;-68
2022/10/24 12:24:29;;;;;;;2.60;0.90;;;15.70;91.00;;;;;;5062904;28;20438;-68
2022/10/24 12:27:01;;;;;;;1.23;0.80;;;15.70;91.00;;;;;;5072022;28;20544;-68
2022/10/24 12:29:33;;;;;;;2.63;0.87;;;15.70;91.10;;;;;;5062675;28;20465;-67
2022/10/24 12:32:25;;;;;;;3.87;1.30;;;15.70;91.20;;;;;;5072720;28;20528;-66
2022/10/24 12:35:00;;;;;;;1.17;0.70;;;15.70;91.10;;;;;;5065789;28;20446;-67
2022/10/24 12:37:50;;;;;;;2.33;0.90;;;15.70;91.10;;;;;;5065133;28;20463;-68
2022/10/24 12:40:50;;;;;;;4.80;1.10;;;15.70;91.10;;;;;;5062053;28;20912;-66
2022/10/24 12:43:31;;;;;;;3.33;1.07;;;15.70;91.10;;;;;;5064914;28;20566;-67
2022/10/24 12:46:03;;;;;;;3.27;1.20;;;15.70;91.10;;;;;;5081371;28;20458;-69
2022/10/24 12:48:43;;;;;;;2.30;1.03;;;15.70;91.10;;;;;;5065309;28;20825;-72
2022/10/24 12:51:30;;;;;;;2.20;0.93;;;15.70;91.10;;;;;;5065877;28;20549;-73
2022/10/24 12:54:16;;;;;;;2.40;1.00;;;15.70;91.20;;;;;;5058958;28;20434;-73
2022/10/24 12:57:22;;;;;;;3.90;1.17;;;15.70;91.20;;;;;;5063353;28;20480;-68
2022/10/24 12:59:52;;;;;;;2.20;0.93;;;15.70;91.20;;;;;;5038935;28;20465;-68
2022/10/24 13:02:58;;;;;;;3.07;0.73;;;15.70;91.20;;;;;;5072886;28;20918;-73
2022/10/24 13:05:45;;;;;;;3.60;1.10;;;15.70;91.20;;;;;;5070436;28;20433;-71
2022/10/24 13:08:35;;;;;;;3.37;1.10;;;15.70;91.20;;;;;;5080096;28;20458;-67
2022/10/24 13:11:21;;;;;;;3.40;1.00;;;15.70;91.20;;;;;;5055456;28;21040;-67
2022/10/24 13:15:03;;;;;;;3.23;1.10;;;15.80;91.40;;;;;;5039066;28;20809;-67
2022/10/24 13:17:38;;;;;;;2.30;0.80;;;15.90;91.00;;;;;;5060713;28;20446;-68
2022/10/24 13:20:18;;;;;;;1.80;1.20;;;15.90;90.90;;;;;;5055325;28;20570;-67
2022/10/24 13:22:49;;;;;;;4.53;1.30;;;15.90;90.90;;;;;;5067349;28;20457;-67
2022/10/24 13:25:33;;;;;;;3.17;1.20;;;15.90;90.90;;;;;;5083090;28;20481;-67